createdAt,value
2023-04-04T00:01:11.148Z,1.70
2023-04-04T00:03:39.559Z,1.70
2023-04-04T00:06:07.761Z,1.70
2023-04-04T00:08:36.190Z,1.60
2023-04-04T00:11:03.496Z,1.60
2023-04-04T00:13:30.735Z,1.60
2023-04-04T00:16:01.144Z,1.60
2023-04-04T00:18:29.538Z,1.50
2023-04-04T00:20:57.870Z,1.50
2023-04-04T00:23:25.412Z,1.50
2023-04-04T00:25:55.518Z,1.50
2023-04-04T00:28:22.781Z,1.40
2023-04-04T00:30:49.880Z,1.50
2023-04-04T00:33:18.731Z,1.40
2023-04-04T00:35:46.221Z,1.40
2023-04-04T00:38:13.405Z,1.40
2023-04-04T00:40:51.055Z,1.40
2023-04-04T00:43:18.985Z,1.40
2023-04-04T00:45:46.729Z,1.40
2023-04-04T00:48:15.527Z,1.40
2023-04-04T00:50:43.904Z,1.30
2023-04-04T00:53:11.346Z,1.40
2023-04-04T00:55:39.621Z,1.40
2023-04-04T00:58:06.706Z,1.30
2023-04-04T01:00:35.996Z,1.30
2023-04-04T01:03:05.891Z,1.30
2023-04-04T01:05:34.132Z,1.30
2023-04-04T01:08:02.452Z,1.30
2023-04-04T01:10:33.467Z,1.30
2023-04-04T01:13:02.296Z,1.30
2023-04-04T01:15:29.669Z,1.20
2023-04-04T01:18:04.227Z,1.30
2023-04-04T01:20:37.397Z,1.20
2023-04-04T01:23:04.975Z,1.30
2023-04-04T01:25:34.715Z,1.20
2023-04-04T01:28:01.907Z,1.20
2023-04-04T01:30:37.034Z,1.20
2023-04-04T01:33:10.783Z,1.20
2023-04-04T01:35:52.753Z,1.20
2023-04-04T01:38:28.914Z,1.20
2023-04-04T01:41:02.687Z,1.20
2023-04-04T01:43:33.149Z,1.20
2023-04-04T01:46:01.008Z,1.20
2023-04-04T01:48:28.375Z,1.10
2023-04-04T01:50:55.514Z,1.10
2023-04-04T01:53:22.869Z,1.10
2023-04-04T01:55:50.097Z,1.10
2023-04-04T01:58:17.320Z,1.10
2023-04-04T02:00:44.356Z,1.10
2023-04-04T02:03:11.480Z,1.10
2023-04-04T02:05:39.922Z,1.10
2023-04-04T02:08:07.649Z,1.10
2023-04-04T02:10:34.731Z,1.10
2023-04-04T02:13:01.872Z,1.10
2023-04-04T02:15:29.135Z,1.10
2023-04-04T02:17:56.836Z,1.10
2023-04-04T02:20:25.312Z,1.20
2023-04-04T02:22:54.190Z,1.10
2023-04-04T02:25:23.484Z,1.10
2023-04-04T02:27:51.535Z,1.10
2023-04-04T02:30:19.584Z,1.10
2023-04-04T02:32:47.486Z,1.10
2023-04-04T02:35:16.934Z,1.10
2023-04-04T02:37:47.679Z,1.10
2023-04-04T02:40:16.380Z,1.10
2023-04-04T02:42:44.961Z,1.10
2023-04-04T02:45:14.423Z,1.10
2023-04-04T02:47:43.004Z,1.10
2023-04-04T02:50:11.431Z,1.00
2023-04-04T02:52:38.661Z,1.00
2023-04-04T02:55:07.110Z,1.00
2023-04-04T02:57:35.149Z,1.00
2023-04-04T03:00:04.390Z,1.00
2023-04-04T03:02:32.885Z,1.00
2023-04-04T03:05:00.041Z,0.90
2023-04-04T03:07:27.452Z,0.90
2023-04-04T03:09:54.518Z,0.90
2023-04-04T03:12:21.971Z,0.90
2023-04-04T03:14:50.147Z,0.80
2023-04-04T03:17:19.345Z,0.80
2023-04-04T03:19:46.413Z,0.80
2023-04-04T03:22:13.562Z,0.80
2023-04-04T03:24:40.641Z,0.70
2023-04-04T03:27:08.478Z,0.80
2023-04-04T03:29:35.639Z,0.70
2023-04-04T03:32:03.068Z,0.70
2023-04-04T03:34:32.015Z,0.70
2023-04-04T03:36:59.175Z,0.70
2023-04-04T03:39:30.148Z,0.70
2023-04-04T03:41:58.142Z,0.60
2023-04-04T03:44:26.454Z,0.60
2023-04-04T03:46:53.603Z,0.60
2023-04-04T03:49:20.731Z,0.60
2023-04-04T03:51:48.716Z,0.60
2023-04-04T03:54:15.959Z,0.60
2023-04-04T03:56:43.260Z,0.60
2023-04-04T03:59:10.504Z,0.60
2023-04-04T04:01:37.632Z,0.60
2023-04-04T04:04:05.470Z,0.60
2023-04-04T04:06:32.716Z,0.50
2023-04-04T04:09:00.261Z,0.50
2023-04-04T04:11:27.344Z,0.50
2023-04-04T04:13:58.348Z,0.50
2023-04-04T04:16:26.928Z,0.50
2023-04-04T04:18:55.924Z,0.50
2023-04-04T04:21:25.876Z,0.50
2023-04-04T04:23:52.993Z,0.50
2023-04-04T04:26:20.078Z,0.50
2023-04-04T04:28:50.550Z,0.50
2023-04-04T04:31:17.647Z,0.50
2023-04-04T04:33:44.832Z,0.50
2023-04-04T04:36:12.044Z,0.50
2023-04-04T04:38:39.208Z,0.50
2023-04-04T04:41:06.607Z,0.50
2023-04-04T04:43:33.851Z,0.50
2023-04-04T04:46:01.249Z,0.50
2023-04-04T04:48:28.402Z,0.50
2023-04-04T04:50:55.695Z,0.50
2023-04-04T04:53:24.531Z,0.50
2023-04-04T04:55:52.590Z,0.60
2023-04-04T04:58:24.984Z,0.60
2023-04-04T05:00:58.008Z,0.60
2023-04-04T05:03:26.126Z,0.70
2023-04-04T05:05:53.562Z,0.70
2023-04-04T05:08:23.723Z,0.70
2023-04-04T05:10:51.554Z,0.80
2023-04-04T05:13:19.252Z,0.80
2023-04-04T05:15:47.737Z,0.90
2023-04-04T05:18:16.350Z,0.90
2023-04-04T05:20:43.976Z,1.00
2023-04-04T05:23:11.138Z,1.00
2023-04-04T05:25:39.288Z,1.10
2023-04-04T05:28:06.850Z,1.20
2023-04-04T05:30:36.512Z,1.20
2023-04-04T05:33:05.138Z,1.30
2023-04-04T05:35:32.615Z,1.40
2023-04-04T05:38:00.054Z,1.40
2023-04-04T05:40:27.410Z,1.50
2023-04-04T05:43:04.355Z,1.50
2023-04-04T05:45:32.555Z,1.50
2023-04-04T05:48:00.229Z,1.50
2023-04-04T05:50:27.491Z,1.60
2023-04-04T05:52:56.862Z,1.60
2023-04-04T05:55:24.241Z,1.60
2023-04-04T05:57:54.157Z,1.70
2023-04-04T06:00:21.552Z,1.70
2023-04-04T06:02:50.219Z,1.70
2023-04-04T06:05:19.194Z,1.70
2023-04-04T06:07:46.581Z,1.80
2023-04-04T06:10:14.157Z,1.80
2023-04-04T06:12:44.825Z,1.80
2023-04-04T06:15:25.682Z,1.90
2023-04-04T06:17:53.069Z,1.90
2023-04-04T06:20:24.560Z,1.90
2023-04-04T06:22:54.404Z,1.90
2023-04-04T06:25:24.738Z,2.00
2023-04-04T06:27:55.812Z,2.00
2023-04-04T06:30:23.570Z,2.00
2023-04-04T06:32:53.857Z,2.00
2023-04-04T06:35:25.861Z,2.10
2023-04-04T06:37:56.928Z,2.30
2023-04-04T06:40:26.010Z,2.30
2023-04-04T06:42:56.797Z,2.50
2023-04-04T06:45:25.387Z,2.50
2023-04-04T06:47:55.201Z,2.60
2023-04-04T06:50:23.165Z,2.60
2023-04-04T06:52:50.941Z,2.80
2023-04-04T06:55:19.019Z,2.90
2023-04-04T06:57:46.524Z,2.90
2023-04-04T07:00:14.670Z,2.90
2023-04-04T07:02:42.261Z,3.00
2023-04-04T07:05:10.951Z,3.00
2023-04-04T07:07:40.833Z,3.10
2023-04-04T07:10:08.422Z,3.20
2023-04-04T07:12:35.791Z,3.30
2023-04-04T07:15:09.336Z,3.30
2023-04-04T07:17:41.236Z,3.40
2023-04-04T07:20:12.185Z,3.50
2023-04-04T07:22:40.090Z,3.60
2023-04-04T07:25:08.148Z,3.60
2023-04-04T07:27:37.375Z,3.70
2023-04-04T07:30:05.456Z,3.70
2023-04-04T07:32:33.383Z,3.80
2023-04-04T07:35:02.904Z,4.00
2023-04-04T07:37:30.472Z,4.10
2023-04-04T07:39:58.434Z,4.20
2023-04-04T07:42:26.878Z,4.20
2023-04-04T07:44:54.556Z,4.20
2023-04-04T07:47:29.444Z,4.30
2023-04-04T07:49:57.129Z,4.40
2023-04-04T07:52:30.733Z,4.30
2023-04-04T07:54:58.151Z,4.50
2023-04-04T07:57:25.453Z,4.50
2023-04-04T07:59:52.848Z,4.60
2023-04-04T08:02:20.281Z,4.70
2023-04-04T08:04:51.013Z,4.90
2023-04-04T08:07:21.590Z,4.90
2023-04-04T08:09:53.359Z,4.90
2023-04-04T08:12:21.176Z,5.00
2023-04-04T08:14:48.657Z,4.90
2023-04-04T08:17:19.110Z,4.90
2023-04-04T08:19:46.804Z,4.90
2023-04-04T08:22:14.647Z,4.80
2023-04-04T08:24:43.306Z,4.90
2023-04-04T08:27:15.010Z,4.90
2023-04-04T08:29:42.735Z,4.90
2023-04-04T08:32:11.428Z,5.00
2023-04-04T08:34:39.034Z,5.10
2023-04-04T08:37:09.741Z,5.20
2023-04-04T08:39:39.798Z,5.30
2023-04-04T08:42:17.288Z,5.30
2023-04-04T08:44:59.621Z,5.40
2023-04-04T08:47:37.062Z,5.30
2023-04-04T08:50:08.546Z,5.50
2023-04-04T08:52:46.990Z,5.60
2023-04-04T08:55:16.110Z,5.60
2023-04-04T08:57:47.050Z,5.60
2023-04-04T09:00:20.923Z,5.50
2023-04-04T09:03:09.999Z,5.60
2023-04-04T09:05:37.463Z,5.70
2023-04-04T09:08:07.799Z,5.80
2023-04-04T09:10:38.757Z,5.50
2023-04-04T09:13:15.618Z,5.40
2023-04-04T09:15:49.535Z,5.30
2023-04-04T09:18:18.236Z,5.40
2023-04-04T09:20:51.844Z,5.60
2023-04-04T09:23:23.977Z,5.80
2023-04-04T09:26:03.081Z,6.10
2023-04-04T09:28:35.579Z,6.20
2023-04-04T09:31:15.208Z,6.40
2023-04-04T09:33:50.493Z,6.40
2023-04-04T09:36:19.628Z,6.30
2023-04-04T09:38:50.649Z,6.00
2023-04-04T09:41:19.209Z,6.00
2023-04-04T09:43:48.661Z,5.90
2023-04-04T09:46:23.838Z,5.90
2023-04-04T09:48:58.369Z,6.10
2023-04-04T09:51:34.782Z,6.20
2023-04-04T09:54:12.868Z,6.20
2023-04-04T09:56:44.871Z,5.90
2023-04-04T09:59:14.679Z,5.60
2023-04-04T10:01:43.800Z,5.50
2023-04-04T10:04:17.673Z,5.50
2023-04-04T10:06:54.044Z,5.60
2023-04-04T10:09:22.620Z,5.80
2023-04-04T10:11:50.657Z,6.00
2023-04-04T10:14:21.582Z,6.00
2023-04-04T10:16:49.183Z,5.90
2023-04-04T10:19:25.601Z,5.90
2023-04-04T10:21:53.523Z,6.00
2023-04-04T10:24:23.325Z,6.10
2023-04-04T10:26:53.541Z,6.20
2023-04-04T10:29:23.740Z,6.20
2023-04-04T10:32:04.576Z,6.10
2023-04-04T10:34:57.735Z,6.00
2023-04-04T10:37:39.248Z,6.10
2023-04-04T10:40:13.559Z,6.20
2023-04-04T10:42:47.093Z,6.30
2023-04-04T10:45:20.573Z,6.20
2023-04-04T10:47:53.235Z,6.30
2023-04-04T10:50:22.826Z,6.40
2023-04-04T10:52:54.222Z,6.40
2023-04-04T10:55:37.815Z,6.40
2023-04-04T10:58:14.023Z,6.40
2023-04-04T11:00:52.712Z,6.40
2023-04-04T11:03:20.349Z,6.50
2023-04-04T11:05:47.641Z,6.60
2023-04-04T11:08:21.819Z,6.70
2023-04-04T11:10:57.557Z,6.60
2023-04-04T11:13:37.178Z,6.60
2023-04-04T11:16:17.533Z,6.50
2023-04-04T11:18:49.046Z,6.40
2023-04-04T11:21:28.299Z,6.60
2023-04-04T11:23:58.358Z,6.60
2023-04-04T11:26:28.779Z,6.70
2023-04-04T11:29:04.359Z,6.50
2023-04-04T11:31:35.684Z,6.60
2023-04-04T11:34:36.612Z,6.60
2023-04-04T11:37:20.247Z,6.60
2023-04-04T11:39:59.276Z,6.50
2023-04-04T11:42:34.555Z,6.60
2023-04-04T11:45:05.382Z,6.70
2023-04-04T11:47:34.530Z,6.80
2023-04-04T11:50:07.414Z,6.80
2023-04-04T11:52:36.068Z,7.00
2023-04-04T11:55:14.818Z,7.00
2023-04-04T11:57:43.523Z,7.00
2023-04-04T12:00:15.662Z,7.10
2023-04-04T12:02:45.903Z,7.00
2023-04-04T12:05:13.701Z,7.00
2023-04-04T12:07:42.635Z,7.00
2023-04-04T12:10:10.900Z,7.10
2023-04-04T12:12:39.615Z,7.20
2023-04-04T12:15:16.967Z,7.10
2023-04-04T12:17:46.605Z,7.10
2023-04-04T12:20:17.231Z,7.20
2023-04-04T12:22:50.849Z,7.20
2023-04-04T12:25:24.676Z,7.10
2023-04-04T12:27:53.693Z,7.00
2023-04-04T12:30:21.564Z,7.00
2023-04-04T12:32:50.443Z,7.20
2023-04-04T12:35:18.844Z,7.10
2023-04-04T12:38:11.243Z,7.10
2023-04-04T12:40:41.138Z,7.00
2023-04-04T12:43:09.439Z,7.00
2023-04-04T12:45:39.531Z,7.20
2023-04-04T12:48:17.007Z,7.10
2023-04-04T12:50:56.045Z,7.10
2023-04-04T12:53:31.257Z,7.00
2023-04-04T12:56:04.727Z,7.00
2023-04-04T12:58:34.258Z,7.20
2023-04-04T13:01:05.559Z,7.30
2023-04-04T13:03:34.074Z,7.30
2023-04-04T13:06:01.436Z,7.50
2023-04-04T13:08:28.770Z,7.50
2023-04-04T13:11:07.936Z,7.70
2023-04-04T13:14:00.773Z,7.70
2023-04-04T13:16:34.050Z,7.80
2023-04-04T13:19:02.484Z,7.60
2023-04-04T13:21:31.858Z,7.60
2023-04-04T13:23:59.287Z,7.60
2023-04-04T13:26:27.249Z,7.70
2023-04-04T13:28:54.519Z,7.60
2023-04-04T13:31:22.430Z,7.40
2023-04-04T13:33:51.518Z,7.30
2023-04-04T13:36:19.605Z,7.40
2023-04-04T13:38:47.356Z,7.40
2023-04-04T13:41:16.222Z,7.40
2023-04-04T13:43:44.729Z,7.40
2023-04-04T13:46:12.023Z,7.30
2023-04-04T13:48:39.174Z,7.30
2023-04-04T13:51:06.647Z,7.20
2023-04-04T13:53:36.561Z,7.30
2023-04-04T13:58:35.187Z,7.30
2023-04-04T14:01:04.552Z,7.30
2023-04-04T14:03:35.371Z,7.30
2023-04-04T14:06:09.838Z,7.20
2023-04-04T14:08:39.605Z,7.10
2023-04-04T14:11:07.842Z,7.00
2023-04-04T14:13:36.879Z,6.80
2023-04-04T14:16:04.909Z,6.80
2023-04-04T14:18:34.712Z,6.80
2023-04-04T14:21:04.200Z,6.80
2023-04-04T14:23:31.967Z,6.90
2023-04-04T14:25:59.424Z,7.00
2023-04-04T14:28:27.349Z,7.00
2023-04-04T14:30:54.856Z,7.10
2023-04-04T14:33:23.774Z,7.10
2023-04-04T14:35:52.657Z,7.10
2023-04-04T14:38:19.937Z,7.10
2023-04-04T14:40:48.315Z,7.10
2023-04-04T14:43:16.159Z,7.00
2023-04-04T14:45:45.513Z,7.00
2023-04-04T14:48:19.319Z,7.10
2023-04-04T14:50:46.976Z,7.10
2023-04-04T14:53:14.450Z,7.20
2023-04-04T14:55:42.989Z,7.20
2023-04-04T14:58:10.291Z,7.20
2023-04-04T15:00:37.543Z,7.10
2023-04-04T15:03:07.275Z,7.20
2023-04-04T15:05:35.222Z,7.20
2023-04-04T15:08:02.556Z,7.20
2023-04-04T15:10:31.923Z,7.20
2023-04-04T15:13:00.987Z,7.10
2023-04-04T15:15:29.392Z,7.10
2023-04-04T15:17:56.658Z,7.10
2023-04-04T15:20:25.294Z,7.00
2023-04-04T15:22:53.515Z,7.00
2023-04-04T15:25:21.472Z,7.00
2023-04-04T15:28:03.640Z,6.90
2023-04-04T15:30:31.828Z,6.90
2023-04-04T15:32:59.137Z,6.90
2023-04-04T15:35:26.337Z,6.90
2023-04-04T15:38:00.375Z,6.80
2023-04-04T15:40:27.663Z,6.90
2023-04-04T15:42:54.780Z,6.80
2023-04-04T15:45:22.017Z,6.70
2023-04-04T15:47:49.223Z,6.60
2023-04-04T15:50:16.765Z,6.60
2023-04-04T15:52:45.186Z,6.60
2023-04-04T15:55:14.513Z,6.50
2023-04-04T15:57:44.731Z,6.40
2023-04-04T16:00:14.034Z,6.30
2023-04-04T16:02:41.408Z,6.30
2023-04-04T16:05:10.206Z,6.30
2023-04-04T16:07:40.431Z,6.30
2023-04-04T16:10:08.250Z,6.30
2023-04-04T16:12:36.429Z,6.20
2023-04-04T16:15:07.116Z,6.10
2023-04-04T16:17:35.683Z,6.10
2023-04-04T16:20:06.299Z,6.10
2023-04-04T16:22:33.651Z,5.90
2023-04-04T16:25:01.359Z,6.00
2023-04-04T16:27:28.616Z,5.90
2023-04-04T16:29:56.012Z,5.90
2023-04-04T16:32:25.018Z,5.80
2023-04-04T16:34:53.229Z,5.80
2023-04-04T16:37:23.322Z,5.80
2023-04-04T16:39:52.093Z,5.80
2023-04-04T16:42:19.691Z,5.60
2023-04-04T16:44:47.667Z,5.60
2023-04-04T16:47:16.128Z,5.50
2023-04-04T16:49:43.579Z,5.60
2023-04-04T16:52:10.935Z,5.50
2023-04-04T16:54:38.835Z,5.50
2023-04-04T16:57:07.423Z,5.40
2023-04-04T16:59:37.524Z,5.40
2023-04-04T17:02:08.084Z,5.40
2023-04-04T17:04:35.680Z,5.30
2023-04-04T17:07:03.030Z,5.30
2023-04-04T17:09:31.420Z,5.20
2023-04-04T17:11:59.594Z,5.10
2023-04-04T17:14:27.031Z,5.00
2023-04-04T17:16:54.573Z,4.90
2023-04-04T17:19:22.346Z,4.90
2023-04-04T17:21:50.706Z,4.80
2023-04-04T17:24:20.527Z,4.70
2023-04-04T17:26:48.197Z,4.70
2023-04-04T17:29:15.421Z,4.50
2023-04-04T17:31:48.964Z,4.50
2023-04-04T17:34:16.471Z,4.50
2023-04-04T17:36:45.123Z,4.40
2023-04-04T17:39:15.117Z,4.40
2023-04-04T17:41:43.228Z,4.30
2023-04-04T17:44:10.554Z,4.30
2023-04-04T17:46:38.018Z,4.20
2023-04-04T17:49:05.170Z,4.20
2023-04-04T17:51:32.565Z,4.10
2023-04-04T17:54:01.311Z,4.10
2023-04-04T17:56:28.447Z,4.10
2023-04-04T17:58:57.038Z,4.10
2023-04-04T18:01:49.858Z,4.00
2023-04-04T18:04:17.574Z,3.90
2023-04-04T18:06:44.842Z,3.90
2023-04-04T18:09:14.645Z,3.90
2023-04-04T18:11:42.082Z,3.80
2023-04-04T18:14:10.986Z,3.80
2023-04-04T18:16:40.706Z,3.70
2023-04-04T18:19:11.708Z,3.70
2023-04-04T18:21:42.009Z,3.60
2023-04-04T18:24:11.365Z,3.60
2023-04-04T18:26:38.856Z,3.60
2023-04-04T18:29:06.311Z,3.50
2023-04-04T18:31:33.576Z,3.50
2023-04-04T18:34:01.131Z,3.40
2023-04-04T18:36:28.526Z,3.40
2023-04-04T18:38:55.927Z,3.40
2023-04-04T18:41:23.236Z,3.30
2023-04-04T18:43:51.376Z,3.30
2023-04-04T18:46:18.656Z,3.30
2023-04-04T18:48:51.669Z,3.30
2023-04-04T18:51:19.998Z,3.20
2023-04-04T18:53:48.456Z,3.20
2023-04-04T18:56:16.258Z,3.20
2023-04-04T18:58:43.434Z,3.10
2023-04-04T19:01:12.710Z,3.10
2023-04-04T19:03:47.106Z,3.10
2023-04-04T19:06:16.452Z,3.00
2023-04-04T19:08:44.768Z,3.00
2023-04-04T19:11:12.342Z,3.00
2023-04-04T19:13:39.651Z,2.90
2023-04-04T19:16:07.420Z,2.90
2023-04-04T19:18:35.020Z,2.90
2023-04-04T19:21:02.330Z,2.80
2023-04-04T19:23:29.790Z,2.80
2023-04-04T19:26:01.998Z,2.80
2023-04-04T19:28:30.189Z,2.80
2023-04-04T19:30:57.651Z,2.80
2023-04-04T19:33:27.430Z,2.70
2023-04-04T19:36:11.230Z,2.70
2023-04-04T19:38:42.542Z,2.60
2023-04-04T19:41:17.763Z,2.60
2023-04-04T19:43:48.795Z,2.60
2023-04-04T19:46:28.605Z,2.60
2023-04-04T19:48:58.135Z,2.60
2023-04-04T19:51:26.268Z,2.60
2023-04-04T19:53:57.327Z,2.50
2023-04-04T19:56:27.618Z,2.50
2023-04-04T19:58:59.374Z,2.40
2023-04-04T20:01:29.327Z,2.40
2023-04-04T20:04:06.148Z,2.40
2023-04-04T20:06:34.478Z,2.40
2023-04-04T20:09:10.355Z,2.40
2023-04-04T20:11:37.800Z,2.40
2023-04-04T20:14:10.030Z,2.30
2023-04-04T20:16:41.821Z,2.40
2023-04-04T20:19:12.541Z,2.30
2023-04-04T20:21:39.958Z,2.30
2023-04-04T20:24:08.775Z,2.30
2023-04-04T20:26:40.355Z,2.30
2023-04-04T20:29:32.726Z,2.30
2023-04-04T20:32:08.023Z,2.20
2023-04-04T20:34:47.627Z,2.20
2023-04-04T20:37:25.024Z,2.20
2023-04-04T20:40:14.777Z,2.10
2023-04-04T20:42:42.483Z,2.10
2023-04-04T20:45:09.822Z,2.10
2023-04-04T20:47:50.353Z,2.10
2023-04-04T20:50:17.914Z,2.10
2023-04-04T20:52:59.414Z,2.10
2023-04-04T20:55:30.077Z,2.00
2023-04-04T20:58:07.434Z,2.00
2023-04-04T21:00:42.696Z,2.00
2023-04-04T21:03:34.889Z,2.00
2023-04-04T21:06:12.731Z,2.00
2023-04-04T21:08:49.507Z,1.90
2023-04-04T21:11:37.299Z,1.90
2023-04-04T21:14:06.290Z,1.80
2023-04-04T21:16:36.165Z,1.80
2023-04-04T21:19:04.817Z,1.80
2023-04-04T21:21:32.160Z,1.70
2023-04-04T21:24:07.874Z,1.70
2023-04-04T21:26:37.975Z,1.70
2023-04-04T21:29:07.386Z,1.70
2023-04-04T21:31:56.034Z,1.70
2023-04-04T21:34:27.580Z,1.60
2023-04-04T21:37:02.550Z,1.60
2023-04-04T21:39:30.861Z,1.60
2023-04-04T21:42:00.217Z,1.60
2023-04-04T21:44:28.360Z,1.50
2023-04-04T21:46:55.931Z,1.50
2023-04-04T21:49:25.962Z,1.50
2023-04-04T21:51:53.490Z,1.40
2023-04-04T21:54:20.774Z,1.40
2023-04-04T21:56:49.029Z,1.40
2023-04-04T21:59:16.516Z,1.40
2023-04-04T22:01:44.986Z,1.40
2023-04-04T22:04:12.341Z,1.40
2023-04-04T22:06:39.676Z,1.30
2023-04-04T22:09:07.035Z,1.30
2023-04-04T22:11:35.111Z,1.30
2023-04-04T22:14:07.646Z,1.30
2023-04-04T22:16:40.327Z,1.30
2023-04-04T22:19:11.223Z,1.20
2023-04-04T22:21:39.719Z,1.20
2023-04-04T22:24:09.633Z,1.20
2023-04-04T22:26:37.308Z,1.20
2023-04-04T22:29:05.397Z,1.10
2023-04-04T22:31:37.631Z,1.10
2023-04-04T22:34:06.423Z,1.10
2023-04-04T22:36:35.615Z,1.10
2023-04-04T22:39:03.162Z,1.10
2023-04-04T22:41:31.629Z,1.00
2023-04-04T22:43:58.978Z,1.10
2023-04-04T22:46:29.371Z,1.00
2023-04-04T22:49:05.751Z,1.00
2023-04-04T22:51:45.705Z,1.00
2023-04-04T22:54:16.075Z,0.90
2023-04-04T22:56:44.108Z,0.90
2023-04-04T22:59:11.497Z,0.90
2023-04-04T23:01:39.134Z,0.80
2023-04-04T23:04:06.774Z,0.80
2023-04-04T23:06:35.898Z,0.70
2023-04-04T23:09:03.288Z,0.70
2023-04-04T23:11:30.610Z,0.70
2023-04-04T23:14:00.488Z,0.60
2023-04-04T23:16:29.075Z,0.60
2023-04-04T23:18:56.392Z,0.60
2023-04-04T23:21:25.002Z,0.50
2023-04-04T23:23:52.295Z,0.50
2023-04-04T23:26:19.557Z,0.50
2023-04-04T23:28:48.628Z,0.40
2023-04-04T23:31:16.965Z,0.40
2023-04-04T23:33:45.994Z,0.40
2023-04-04T23:36:13.226Z,0.40
2023-04-04T23:38:40.568Z,0.30
2023-04-04T23:41:07.956Z,0.30
2023-04-04T23:43:36.179Z,0.30
2023-04-04T23:46:04.077Z,0.20
2023-04-04T23:48:32.596Z,0.20
2023-04-04T23:51:01.863Z,0.20
2023-04-04T23:53:29.810Z,0.10
2023-04-04T23:55:57.585Z,0.10
2023-04-04T23:58:24.824Z,0.00
